createdAt,value
2022-08-07T00:02:40.731Z,18.87
2022-08-07T00:05:29.556Z,18.92
2022-08-07T00:08:32.429Z,19.11
2022-08-07T00:11:48.119Z,19.04
2022-08-07T00:14:57.315Z,19.09
2022-08-07T00:18:01.244Z,18.86
2022-08-07T00:21:08.124Z,18.74
2022-08-07T00:24:31.572Z,18.96
2022-08-07T00:27:53.068Z,19.15
2022-08-07T00:30:57.067Z,18.89
2022-08-07T00:34:00.658Z,18.81
2022-08-07T00:37:05.110Z,18.92
2022-08-07T00:40:10.899Z,18.97
2022-08-07T00:44:00.253Z,18.96
2022-08-07T00:46:40.811Z,18.94
2022-08-07T00:50:18.944Z,18.78
2022-08-07T00:53:06.709Z,18.79
2022-08-07T00:56:15.620Z,18.76
2022-08-07T00:59:20.344Z,18.68
2022-08-07T01:02:40.413Z,18.80
2022-08-07T01:05:43.215Z,18.65
2022-08-07T01:08:58.515Z,18.71
2022-08-07T01:12:28.168Z,18.77
2022-08-07T01:16:00.925Z,18.67
2022-08-07T01:18:52.294Z,18.72
2022-08-07T01:21:55.740Z,18.78
2022-08-07T01:25:00.118Z,18.86
2022-08-07T01:28:03.673Z,18.82
2022-08-07T01:31:06.703Z,18.80
2022-08-07T01:34:12.122Z,18.76
2022-08-07T01:37:17.500Z,18.70
2022-08-07T01:40:23.465Z,18.77
2022-08-07T01:43:34.664Z,18.85
2022-08-07T01:46:42.398Z,18.81
2022-08-07T01:49:46.426Z,18.61
2022-08-07T01:52:58.593Z,18.79
2022-08-07T01:56:03.171Z,18.88
2022-08-07T01:59:19.174Z,18.71
2022-08-07T02:03:12.138Z,18.51
2022-08-07T02:06:08.817Z,18.49
2022-08-07T02:09:37.467Z,18.52
2022-08-07T02:12:59.506Z,18.46
2022-08-07T02:16:07.562Z,18.48
2022-08-07T02:20:05.311Z,18.31
2022-08-07T02:22:43.867Z,18.24
2022-08-07T02:26:31.941Z,18.24
2022-08-07T02:29:13.748Z,18.25
2022-08-07T02:32:23.532Z,18.21
2022-08-07T02:36:29.844Z,18.11
2022-08-07T02:39:16.218Z,18.29
2022-08-07T02:42:30.369Z,18.28
2022-08-07T02:46:01.649Z,18.26
2022-08-07T02:49:03.324Z,18.24
2022-08-07T02:52:12.967Z,18.20
2022-08-07T02:55:28.470Z,18.13
2022-08-07T02:58:48.249Z,18.30
2022-08-07T03:01:52.077Z,18.29
2022-08-07T03:04:59.900Z,18.20
2022-08-07T03:08:10.079Z,18.07
2022-08-07T03:11:15.143Z,17.94
2022-08-07T03:14:19.042Z,18.08
2022-08-07T03:17:26.081Z,17.92
2022-08-07T03:20:30.310Z,18.03
2022-08-07T03:24:19.376Z,17.87
2022-08-07T03:27:04.388Z,17.75
2022-08-07T03:30:10.810Z,18.02
2022-08-07T03:33:17.293Z,17.94
2022-08-07T03:36:26.592Z,17.90
2022-08-07T03:40:00.045Z,18.09
2022-08-07T03:42:57.326Z,17.97
2022-08-07T03:46:03.194Z,18.04
2022-08-07T03:49:08.629Z,18.18
2022-08-07T03:52:22.326Z,18.24
2022-08-07T03:55:52.887Z,18.17
2022-08-07T03:59:09.605Z,18.26
2022-08-07T04:02:15.563Z,18.45
2022-08-07T04:05:24.039Z,18.25
2022-08-07T04:08:45.365Z,18.24
2022-08-07T04:12:26.431Z,18.42
2022-08-07T04:15:15.212Z,18.46
2022-08-07T04:18:58.078Z,18.26
2022-08-07T04:21:59.603Z,18.11
2022-08-07T04:25:08.911Z,18.07
2022-08-07T04:28:16.190Z,18.12
2022-08-07T04:31:38.880Z,18.03
2022-08-07T04:34:50.630Z,18.26
2022-08-07T04:38:03.083Z,18.20
2022-08-07T04:41:09.520Z,18.16
2022-08-07T04:44:23.071Z,18.55
2022-08-07T04:48:01.600Z,18.63
2022-08-07T04:51:05.246Z,18.36
2022-08-07T04:54:30.949Z,18.40
2022-08-07T04:58:11.440Z,17.92
2022-08-07T05:01:50.612Z,18.20
2022-08-07T05:05:52.195Z,18.34
2022-08-07T05:09:00.744Z,18.53
2022-08-07T05:12:08.515Z,18.83
2022-08-07T05:15:21.648Z,18.68
2022-08-07T05:18:29.597Z,18.79
2022-08-07T05:22:00.495Z,19.05
2022-08-07T05:24:59.613Z,18.89
2022-08-07T05:28:20.639Z,18.82
2022-08-07T05:31:38.997Z,18.95
2022-08-07T05:34:43.976Z,18.93
2022-08-07T05:37:47.924Z,19.13
2022-08-07T05:41:14.114Z,18.97
2022-08-07T05:44:29.456Z,19.25
2022-08-07T05:48:00.150Z,18.99
2022-08-07T05:51:01.285Z,19.32
2022-08-07T05:54:12.816Z,19.40
2022-08-07T05:57:37.743Z,19.70
2022-08-07T06:00:42.030Z,19.89
2022-08-07T06:03:58.498Z,19.76
2022-08-07T06:07:06.142Z,19.87
2022-08-07T06:10:11.277Z,19.88
2022-08-07T06:13:20.921Z,19.57
2022-08-07T06:16:50.271Z,19.65
2022-08-07T06:20:04.100Z,19.88
2022-08-07T06:23:24.778Z,19.95
2022-08-07T06:26:32.355Z,19.81
2022-08-07T06:29:38.843Z,19.74
2022-08-07T06:32:42.496Z,20.39
2022-08-07T06:36:06.852Z,20.24
2022-08-07T06:40:13.042Z,20.17
2022-08-07T06:42:37.624Z,20.38
2022-08-07T06:45:44.314Z,20.75
2022-08-07T08:23:08.138Z,24.85
2022-08-07T08:26:31.319Z,25.24
2022-08-07T08:30:06.021Z,25.79
2022-08-07T08:33:16.048Z,26.13
2022-08-07T08:36:25.594Z,25.99
2022-08-07T08:39:39.314Z,25.85
2022-08-07T08:43:02.026Z,25.75
2022-08-07T08:46:09.102Z,25.84
2022-08-07T08:49:33.186Z,26.02
2022-08-07T08:52:58.305Z,26.10
2022-08-07T08:56:24.708Z,26.30
2022-08-07T08:59:54.632Z,26.10
2022-08-07T09:03:07.583Z,26.43
2022-08-07T09:06:21.402Z,26.50
2022-08-07T09:09:57.192Z,27.02
2022-08-07T09:13:36.991Z,26.87
2022-08-07T09:16:47.956Z,26.46
2022-08-07T09:20:37.152Z,26.72
2022-08-07T09:30:01.828Z,27.49
2022-08-07T09:31:50.385Z,27.45
2022-08-07T09:36:02.710Z,27.71
2022-08-07T09:38:43.817Z,28.03
2022-08-07T09:42:17.251Z,28.11
2022-08-07T09:47:24.851Z,28.42
2022-08-07T09:50:02.147Z,28.43
2022-08-07T09:53:20.266Z,28.37
2022-08-07T10:00:15.058Z,28.26
2022-08-07T10:12:21.506Z,28.75
2022-08-07T10:15:51.101Z,28.77
2022-08-07T10:19:37.568Z,28.72
2022-08-07T10:23:10.240Z,28.97
2022-08-07T10:30:19.669Z,28.44
2022-08-07T10:34:06.284Z,28.60
2022-08-07T10:37:48.696Z,28.95
2022-08-07T10:41:56.792Z,28.54
2022-08-07T10:45:45.219Z,29.14
2022-08-07T10:52:48.646Z,29.19
2022-08-07T11:00:36.921Z,29.50
2022-08-07T11:12:05.084Z,30.66
2022-08-07T11:15:54.470Z,30.60
2022-08-07T11:23:52.405Z,30.37
2022-08-07T11:31:45.081Z,30.54
2022-08-07T11:42:46.055Z,30.70
2022-08-07T11:46:08.605Z,30.62
2022-08-07T11:50:11.428Z,30.80
2022-08-07T11:53:43.293Z,29.76
2022-08-07T11:58:00.505Z,30.34
2022-08-07T12:01:05.217Z,29.96
2022-08-07T12:04:32.984Z,30.18
2022-08-07T12:07:53.409Z,30.42
2022-08-07T12:11:20.037Z,29.88
2022-08-07T12:14:27.770Z,30.00
2022-08-07T12:17:38.958Z,29.73
2022-08-07T12:20:49.239Z,29.58
2022-08-07T12:24:36.921Z,29.51
2022-08-07T12:28:09.859Z,29.50
2022-08-07T12:31:06.247Z,30.28
2022-08-07T12:34:12.712Z,29.90
2022-08-07T12:37:23.343Z,30.53
2022-08-07T12:40:49.986Z,30.87
2022-08-07T12:44:03.977Z,30.93
2022-08-07T12:47:27.177Z,30.85
2022-08-07T12:50:50.950Z,31.32
2022-08-07T12:54:24.033Z,31.42
2022-08-07T12:57:23.412Z,30.66
2022-08-07T13:00:50.213Z,29.72
2022-08-07T13:04:04.565Z,30.43
2022-08-07T13:08:13.348Z,29.91
2022-08-07T13:11:00.898Z,29.72
2022-08-07T13:14:09.214Z,30.44
2022-08-07T13:17:21.306Z,32.26
2022-08-07T13:20:34.061Z,31.39
2022-08-07T13:24:01.624Z,31.09
2022-08-07T13:28:10.741Z,31.16
2022-08-07T13:31:23.207Z,30.88
2022-08-07T13:34:50.949Z,31.62
2022-08-07T13:38:09.217Z,31.00
2022-08-07T13:41:27.970Z,32.56
2022-08-07T13:44:37.036Z,34.09
2022-08-07T13:48:05.826Z,33.66
2022-08-07T13:51:28.320Z,35.03
2022-08-07T13:54:36.842Z,34.06
2022-08-07T13:57:59.114Z,33.80
2022-08-07T14:01:13.259Z,33.64
2022-08-07T14:04:21.455Z,37.18
2022-08-07T14:11:53.796Z,39.26
2022-08-07T14:24:02.071Z,38.93
2022-08-07T14:28:20.982Z,39.48
2022-08-07T14:35:03.899Z,38.25
2022-08-07T14:38:09.330Z,35.61
2022-08-07T14:41:33.911Z,35.68
2022-08-07T14:44:59.745Z,38.49
2022-08-07T14:48:04.453Z,38.03
2022-08-07T15:07:24.164Z,41.87
2022-08-07T15:18:48.344Z,37.33
2022-08-07T15:22:04.688Z,38.92
2022-08-07T15:25:18.408Z,41.11
2022-08-07T15:28:34.604Z,42.54
2022-08-07T15:32:01.517Z,40.98
2022-08-07T15:35:07.237Z,42.74
2022-08-07T15:38:30.094Z,41.53
2022-08-07T15:42:42.475Z,39.72
2022-08-07T15:45:09.469Z,43.06
2022-08-07T15:48:20.286Z,40.84
2022-08-07T15:54:49.048Z,42.83
2022-08-07T15:58:00.302Z,40.57
2022-08-07T16:01:06.654Z,40.79
2022-08-07T16:04:15.067Z,41.18
2022-08-07T16:08:29.233Z,39.64
2022-08-07T16:10:47.222Z,40.29
2022-08-07T16:14:04.025Z,38.07
2022-08-07T16:18:02.190Z,36.46
2022-08-07T16:22:02.474Z,35.61
2022-08-07T16:24:34.255Z,36.11
2022-08-07T16:27:57.229Z,36.01
2022-08-07T16:31:51.753Z,36.73
2022-08-07T16:35:50.724Z,36.16
2022-08-07T16:39:01.332Z,35.95
2022-08-07T16:42:30.251Z,36.53
2022-08-07T16:54:27.792Z,40.66
2022-08-07T17:25:14.199Z,39.52
2022-08-07T17:28:31.281Z,37.78
2022-08-07T17:31:34.932Z,35.32
2022-08-07T17:35:49.719Z,32.52
2022-08-07T17:39:10.488Z,31.57
2022-08-07T17:42:31.914Z,31.31
2022-08-07T17:45:40.384Z,29.95
2022-08-07T17:48:58.524Z,29.72
2022-08-07T17:52:14.481Z,29.31
2022-08-07T17:56:01.172Z,28.94
2022-08-07T17:59:56.930Z,28.08
2022-08-07T18:03:25.679Z,27.70
2022-08-07T18:06:39.143Z,27.31
2022-08-07T18:10:06.431Z,27.11
2022-08-07T18:13:15.329Z,26.94
2022-08-07T18:16:33.977Z,26.82
2022-08-07T18:21:07.068Z,26.73
2022-08-07T18:23:35.220Z,26.49
2022-08-07T18:26:40.889Z,26.13
2022-08-07T18:30:32.412Z,26.37
2022-08-07T18:33:39.302Z,26.52
2022-08-07T18:38:56.751Z,26.14
2022-08-07T18:41:09.122Z,26.25
2022-08-07T18:50:05.101Z,26.19
2022-08-07T18:52:34.873Z,26.30
2022-08-07T18:56:02.886Z,26.29
2022-08-07T18:59:47.650Z,26.22
2022-08-07T19:02:58.145Z,26.08
2022-08-07T19:06:16.488Z,25.96
2022-08-07T19:09:54.701Z,25.89
2022-08-07T19:12:53.751Z,25.82
2022-08-07T19:17:06.465Z,25.72
2022-08-07T19:20:02.380Z,25.51
2022-08-07T19:23:19.411Z,25.49
2022-08-07T19:28:28.493Z,25.41
2022-08-07T19:31:00.217Z,25.36
2022-08-07T19:33:40.031Z,25.38
2022-08-07T19:36:51.913Z,25.28
2022-08-07T19:40:01.839Z,25.15
2022-08-07T19:43:21.832Z,25.10
2022-08-07T19:46:40.483Z,24.77
2022-08-07T19:50:30.072Z,24.81
2022-08-07T19:54:44.271Z,24.67
2022-08-07T19:57:51.830Z,24.66
2022-08-07T20:00:29.166Z,24.62
2022-08-07T20:03:36.408Z,24.54
2022-08-07T20:06:42.813Z,24.61
2022-08-07T20:10:35.351Z,24.26
2022-08-07T20:13:23.588Z,24.28
2022-08-07T20:16:34.773Z,24.32
2022-08-07T20:19:47.930Z,24.31
2022-08-07T20:23:23.328Z,24.16
2022-08-07T20:26:44.712Z,24.13
2022-08-07T20:30:00.356Z,23.98
2022-08-07T20:33:09.172Z,23.74
2022-08-07T20:36:30.631Z,23.58
2022-08-07T20:40:02.829Z,23.35
2022-08-07T20:42:59.236Z,23.40
2022-08-07T20:46:28.046Z,23.27
2022-08-07T20:49:58.445Z,23.00
2022-08-07T20:52:52.753Z,23.01
2022-08-07T20:55:58.578Z,23.12
2022-08-07T20:59:05.340Z,23.17
2022-08-07T21:02:53.912Z,23.14
2022-08-07T21:06:12.405Z,23.04
2022-08-07T21:09:52.418Z,22.82
2022-08-07T21:13:01.192Z,22.74
2022-08-07T21:16:05.480Z,22.76
2022-08-07T21:19:10.339Z,22.74
2022-08-07T21:22:19.419Z,22.69
2022-08-07T21:26:01.348Z,22.68
2022-08-07T21:29:18.333Z,22.59
2022-08-07T21:32:48.576Z,22.52
2022-08-07T21:36:12.015Z,22.47
2022-08-07T21:39:54.789Z,22.38
2022-08-07T21:43:23.016Z,22.41
2022-08-07T21:46:33.397Z,22.36
2022-08-07T21:50:04.590Z,22.29
2022-08-07T21:53:17.734Z,22.15
2022-08-07T21:56:39.747Z,22.06
2022-08-07T22:00:06.164Z,22.07
2022-08-07T22:03:17.182Z,22.05
2022-08-07T22:06:30.143Z,22.01
2022-08-07T22:09:54.138Z,22.00
2022-08-07T22:13:01.006Z,21.89
2022-08-07T22:16:39.587Z,21.89
2022-08-07T22:20:22.894Z,21.82
2022-08-07T22:23:33.341Z,21.79
2022-08-07T22:26:58.879Z,21.61
2022-08-07T22:30:20.406Z,21.57
2022-08-07T22:33:52.620Z,21.66
2022-08-07T22:37:18.490Z,21.67
2022-08-07T22:40:27.790Z,21.62
2022-08-07T22:43:37.287Z,21.67
2022-08-07T22:47:06.378Z,21.56
2022-08-07T22:50:43.857Z,21.61
2022-08-07T22:54:07.451Z,21.63
2022-08-07T22:57:40.931Z,21.68
2022-08-07T23:01:06.185Z,21.69
2022-08-07T23:06:07.397Z,21.68
2022-08-07T23:08:30.554Z,21.63
2022-08-07T23:11:46.300Z,21.63
2022-08-07T23:16:04.280Z,21.66
2022-08-07T23:19:47.715Z,21.27
2022-08-07T23:24:04.097Z,20.86
2022-08-07T23:26:59.465Z,21.03
2022-08-07T23:30:37.309Z,20.83
2022-08-07T23:34:36.301Z,20.83
2022-08-07T23:38:01.111Z,21.03
2022-08-07T23:41:47.521Z,21.11
2022-08-07T23:46:01.303Z,21.03
2022-08-07T23:49:16.695Z,21.15
2022-08-07T23:53:00.394Z,21.22
2022-08-07T23:56:04.138Z,21.27
